createdAt,value
2018-01-31T01:53:02.271Z,3.08
2018-01-31T01:55:29.843Z,2.98
2018-01-31T01:57:57.407Z,2.91
2018-01-31T02:00:25.011Z,2.81
2018-01-31T02:02:52.601Z,2.73
2018-01-31T02:05:20.175Z,2.65
2018-01-31T02:07:47.772Z,2.57
2018-01-31T02:10:15.352Z,2.46
2018-01-31T02:12:42.911Z,2.43
2018-01-31T02:15:10.528Z,2.42
2018-01-31T02:17:38.078Z,2.51
2018-01-31T02:20:05.814Z,2.65
2018-01-31T02:22:33.691Z,2.57
2018-01-31T02:25:01.259Z,2.63
2018-01-31T02:27:28.836Z,2.59
2018-01-31T02:29:56.457Z,2.48
2018-01-31T02:32:24.020Z,2.41
2018-01-31T02:34:51.577Z,2.34
2018-01-31T02:37:19.159Z,2.22
2018-01-31T02:39:56.534Z,2.15
2018-01-31T02:42:24.136Z,1.98
2018-01-31T02:44:51.726Z,2.11
2018-01-31T02:47:19.305Z,2.12
2018-01-31T02:49:46.934Z,2.14
2018-01-31T02:52:14.639Z,2.23
2018-01-31T02:54:42.203Z,2.22
2018-01-31T02:57:09.807Z,2.22
2018-01-31T02:59:37.419Z,2.17
2018-01-31T03:02:04.981Z,2.17
2018-01-31T03:04:32.564Z,2.09
2018-01-31T03:07:11.497Z,2.03
2018-01-31T03:09:39.101Z,1.95
2018-01-31T03:12:06.675Z,1.93
2018-01-31T03:14:34.449Z,1.87
2018-01-31T03:17:02.073Z,1.93
2018-01-31T03:19:29.821Z,1.87
2018-01-31T03:21:57.396Z,1.85
2018-01-31T03:24:24.986Z,1.73
2018-01-31T03:26:52.555Z,1.78
2018-01-31T03:29:20.129Z,1.78
2018-01-31T03:31:47.867Z,1.61
2018-01-31T03:34:15.519Z,1.59
2018-01-31T03:36:43.210Z,1.57
2018-01-31T03:39:10.822Z,1.64
2018-01-31T03:41:38.401Z,1.82
2018-01-31T03:44:05.966Z,1.99
2018-01-31T03:46:33.642Z,1.99
2018-01-31T03:49:01.230Z,2.01
2018-01-31T03:51:28.981Z,1.97
2018-01-31T03:53:56.625Z,1.90
2018-01-31T03:56:24.197Z,1.80
2018-01-31T03:58:52.015Z,1.71
2018-01-31T04:01:19.670Z,1.67
2018-01-31T04:03:47.258Z,1.66
2018-01-31T04:06:14.847Z,1.59
2018-01-31T04:08:42.449Z,1.45
2018-01-31T04:11:10.018Z,1.50
2018-01-31T04:13:37.799Z,1.47
2018-01-31T04:16:05.778Z,1.49
2018-01-31T04:18:33.462Z,1.46
2018-01-31T04:21:01.039Z,1.42
2018-01-31T04:23:28.639Z,1.39
2018-01-31T04:25:56.243Z,1.32
2018-01-31T04:28:23.815Z,1.17
2018-01-31T04:30:51.556Z,1.21
2018-01-31T04:33:19.219Z,1.20
2018-01-31T04:35:46.794Z,1.18
2018-01-31T04:38:14.416Z,1.15
2018-01-31T04:40:42.221Z,1.13
2018-01-31T04:43:09.861Z,1.06
2018-01-31T04:45:37.464Z,1.05
2018-01-31T04:48:05.024Z,1.00
2018-01-31T04:50:32.661Z,0.90
2018-01-31T04:53:00.285Z,0.89
2018-01-31T04:55:28.197Z,0.83
2018-01-31T04:57:55.853Z,0.83
2018-01-31T05:00:23.463Z,0.78
2018-01-31T05:02:51.179Z,0.75
2018-01-31T05:05:18.775Z,0.74
2018-01-31T05:07:46.470Z,0.72
2018-01-31T05:10:14.079Z,0.80
2018-01-31T05:12:41.671Z,0.84
2018-01-31T05:15:09.476Z,0.89
2018-01-31T05:17:37.031Z,0.88
2018-01-31T05:20:04.596Z,0.85
2018-01-31T05:22:32.279Z,0.90
2018-01-31T05:24:59.925Z,0.87
2018-01-31T05:27:27.508Z,0.84
2018-01-31T05:29:55.143Z,0.84
2018-01-31T05:32:22.714Z,0.87
2018-01-31T05:34:50.291Z,0.93
2018-01-31T05:37:17.896Z,0.95
2018-01-31T05:39:45.451Z,0.95
2018-01-31T05:42:13.040Z,0.97
2018-01-31T05:44:40.647Z,0.94
2018-01-31T05:47:08.242Z,1.02
2018-01-31T05:49:35.950Z,1.10
2018-01-31T05:52:03.555Z,1.14
2018-01-31T05:54:31.144Z,1.14
2018-01-31T05:56:58.728Z,1.11
2018-01-31T05:59:26.340Z,1.15
2018-01-31T06:01:56.841Z,1.18
2018-01-31T06:04:24.587Z,1.27
2018-01-31T06:06:52.224Z,1.36
2018-01-31T06:09:19.816Z,1.29
2018-01-31T06:11:47.383Z,1.55
2018-01-31T06:14:15.002Z,1.93
2018-01-31T06:16:42.579Z,3.35
2018-01-31T06:19:10.353Z,5.50
2018-01-31T06:21:37.966Z,7.42
2018-01-31T06:24:05.643Z,8.55
2018-01-31T06:26:33.394Z,9.69
2018-01-31T06:29:01.251Z,10.69
2018-01-31T06:31:28.864Z,10.79
2018-01-31T06:33:56.489Z,11.24
2018-01-31T06:36:24.136Z,12.42
2018-01-31T06:38:51.733Z,12.77
2018-01-31T06:41:19.340Z,12.73
2018-01-31T06:43:46.942Z,12.79
2018-01-31T06:46:14.635Z,13.04
2018-01-31T06:48:42.220Z,13.20
2018-01-31T06:51:09.837Z,13.05
2018-01-31T06:53:37.618Z,13.63
2018-01-31T06:56:05.200Z,13.62
2018-01-31T06:58:32.883Z,14.54
2018-01-31T07:01:00.465Z,14.61
2018-01-31T07:03:28.058Z,15.06
2018-01-31T07:05:55.666Z,15.13
2018-01-31T07:08:23.238Z,15.37
2018-01-31T07:10:50.826Z,15.24
2018-01-31T07:13:18.450Z,14.85
2018-01-31T07:15:46.156Z,14.90
2018-01-31T07:18:13.733Z,14.11
2018-01-31T07:20:41.352Z,14.62
2018-01-31T07:23:08.952Z,14.68
2018-01-31T07:25:36.618Z,14.51
2018-01-31T07:28:04.287Z,14.66
2018-01-31T07:30:31.859Z,14.71
2018-01-31T07:33:01.021Z,15.12
2018-01-31T07:35:28.782Z,15.51
2018-01-31T07:37:56.351Z,15.81
2018-01-31T07:40:23.930Z,16.26
2018-01-31T07:42:51.587Z,17.00
2018-01-31T07:45:19.166Z,17.23
2018-01-31T07:47:46.745Z,17.27
2018-01-31T07:50:14.351Z,17.25
2018-01-31T07:52:41.928Z,17.37
2018-01-31T07:55:09.681Z,16.97
2018-01-31T07:57:37.314Z,16.29
2018-01-31T08:00:04.902Z,15.88
2018-01-31T08:02:32.475Z,16.01
2018-01-31T08:05:00.099Z,16.25
2018-01-31T08:07:27.695Z,16.53
2018-01-31T08:09:55.258Z,16.65
2018-01-31T08:12:22.890Z,16.86
2018-01-31T08:14:50.469Z,17.24
2018-01-31T08:17:18.064Z,17.13
2018-01-31T08:19:45.675Z,17.42
2018-01-31T08:22:13.334Z,17.85
2018-01-31T08:24:41.055Z,18.40
2018-01-31T08:27:08.739Z,18.70
2018-01-31T08:29:36.403Z,19.15
2018-01-31T08:32:03.978Z,19.33
2018-01-31T08:34:31.588Z,19.78
2018-01-31T08:36:59.180Z,19.84
2018-01-31T08:39:26.766Z,19.93
2018-01-31T08:41:54.616Z,20.00
2018-01-31T08:44:22.456Z,19.71
2018-01-31T08:46:50.033Z,20.04
2018-01-31T08:49:17.677Z,19.94
2018-01-31T08:51:45.581Z,20.03
2018-01-31T08:54:13.337Z,19.93
2018-01-31T08:56:41.547Z,20.32
2018-01-31T08:59:09.727Z,19.36
2018-01-31T09:01:37.303Z,18.86
2018-01-31T09:04:04.975Z,18.98
2018-01-31T09:06:32.537Z,19.09
2018-01-31T09:09:00.174Z,19.54
2018-01-31T09:11:27.798Z,19.59
2018-01-31T09:13:55.357Z,19.52
2018-01-31T09:16:22.999Z,20.06
2018-01-31T09:18:50.616Z,19.75
2018-01-31T09:21:18.191Z,19.55
2018-01-31T09:23:45.763Z,20.19
2018-01-31T09:26:13.368Z,20.63
2018-01-31T09:28:41.038Z,19.82
2018-01-31T09:31:08.606Z,20.41
2018-01-31T09:33:36.366Z,20.90
2018-01-31T09:36:04.045Z,20.98
2018-01-31T09:38:31.618Z,21.04
2018-01-31T09:40:59.375Z,21.51
2018-01-31T09:43:26.958Z,20.93
2018-01-31T09:45:54.701Z,20.47
2018-01-31T09:48:22.656Z,20.66
2018-01-31T09:50:50.420Z,20.97
2018-01-31T09:53:18.498Z,20.71
2018-01-31T09:55:45.744Z,19.94
2018-01-31T09:58:13.313Z,20.26
2018-01-31T10:00:41.275Z,19.30
2018-01-31T10:03:08.894Z,20.22
2018-01-31T10:05:36.474Z,20.31
2018-01-31T10:08:04.043Z,21.14
2018-01-31T10:10:31.642Z,20.50
2018-01-31T10:12:59.217Z,20.60
2018-01-31T10:15:26.779Z,20.41
2018-01-31T10:17:54.473Z,20.60
2018-01-31T10:20:22.288Z,21.03
2018-01-31T10:22:49.861Z,20.60
2018-01-31T10:25:17.477Z,20.80
2018-01-31T10:27:45.047Z,21.09
2018-01-31T10:30:12.615Z,21.11
2018-01-31T10:32:40.216Z,21.80
2018-01-31T10:35:07.786Z,21.39
2018-01-31T10:37:35.378Z,20.92
2018-01-31T10:40:03.056Z,21.01
2018-01-31T10:42:30.965Z,21.78
2018-01-31T10:44:58.518Z,22.29
2018-01-31T10:47:26.125Z,22.68
2018-01-31T10:49:53.688Z,22.87
2018-01-31T10:52:21.235Z,22.55
2018-01-31T10:57:28.865Z,22.59
2018-01-31T10:59:44.369Z,22.73
2018-01-31T11:02:11.950Z,22.76
2018-01-31T11:04:39.527Z,23.40
2018-01-31T11:07:07.094Z,22.48
2018-01-31T11:09:34.783Z,23.13
2018-01-31T11:12:02.338Z,22.50
2018-01-31T11:14:30.012Z,23.43
2018-01-31T11:16:57.620Z,24.89
2018-01-31T11:19:25.225Z,24.67
2018-01-31T11:21:52.792Z,22.03
2018-01-31T11:24:20.456Z,21.81
2018-01-31T11:26:48.036Z,22.42
2018-01-31T11:29:15.590Z,22.20
2018-01-31T11:31:43.192Z,23.50
2018-01-31T11:34:10.791Z,24.13
2018-01-31T11:36:38.371Z,25.18
2018-01-31T11:39:05.980Z,25.19
2018-01-31T11:41:33.548Z,25.11
2018-01-31T11:44:01.120Z,25.20
2018-01-31T11:46:28.702Z,26.08
2018-01-31T11:48:56.267Z,25.64
2018-01-31T11:51:23.827Z,22.55
2018-01-31T11:53:51.475Z,24.40
2018-01-31T11:56:19.060Z,24.31
2018-01-31T11:58:46.628Z,23.69
2018-01-31T12:01:14.234Z,23.59
2018-01-31T12:03:41.811Z,22.79
2018-01-31T12:06:09.470Z,23.41
2018-01-31T12:08:37.247Z,24.20
2018-01-31T12:11:04.790Z,24.42
2018-01-31T12:16:45.057Z,26.55
2018-01-31T12:22:23.301Z,24.36
2018-01-31T12:25:02.742Z,25.00
2018-01-31T12:27:42.069Z,23.00
2018-01-31T12:30:21.282Z,23.46
2018-01-31T12:33:00.539Z,23.74
2018-01-31T12:35:39.934Z,23.51
2018-01-31T12:38:19.207Z,24.65
2018-01-31T12:40:46.251Z,24.66
2018-01-31T12:43:13.265Z,23.19
2018-01-31T12:45:40.288Z,23.07
2018-01-31T12:48:19.612Z,24.18
2018-01-31T12:50:58.931Z,24.26
2018-01-31T12:53:38.331Z,24.33
2018-01-31T12:56:17.550Z,23.16
2018-01-31T13:01:54.913Z,22.14
2018-01-31T13:04:44.174Z,23.05
2018-01-31T13:07:22.440Z,23.25
2018-01-31T13:13:06.433Z,24.09
2018-01-31T13:18:58.619Z,23.79
2018-01-31T13:21:37.882Z,22.81
2018-01-31T13:24:17.366Z,23.62
2018-01-31T13:30:01.454Z,22.29
2018-01-31T13:32:40.751Z,21.89
2018-01-31T13:35:20.148Z,22.68
2018-01-31T13:38:05.105Z,22.23
2018-01-31T13:40:44.524Z,22.29
2018-01-31T13:43:23.746Z,20.41
2018-01-31T13:46:03.251Z,21.56
2018-01-31T13:48:42.748Z,22.02
2018-01-31T13:54:19.594Z,23.09
2018-01-31T13:56:59.100Z,22.90
2018-01-31T13:59:38.477Z,23.91
2018-01-31T14:02:17.968Z,24.79
2018-01-31T14:04:57.199Z,23.16
2018-01-31T14:07:36.643Z,21.62
2018-01-31T14:10:15.904Z,20.05
2018-01-31T14:15:57.772Z,17.04
2018-01-31T14:18:37.027Z,16.31
2018-01-31T14:21:16.548Z,15.63
2018-01-31T14:23:55.831Z,15.25
2018-01-31T14:26:35.037Z,14.87
2018-01-31T14:29:14.537Z,14.30
2018-01-31T14:34:53.520Z,13.99
2018-01-31T14:37:20.537Z,13.77
2018-01-31T14:39:47.553Z,13.68
2018-01-31T14:42:14.852Z,13.57
2018-01-31T14:44:41.887Z,13.43
2018-01-31T14:47:09.094Z,13.39
2018-01-31T14:49:36.163Z,13.23
2018-01-31T14:52:03.217Z,13.10
2018-01-31T14:54:30.251Z,12.99
2018-01-31T14:56:57.322Z,12.77
2018-01-31T14:59:24.383Z,12.75
2018-01-31T15:01:51.585Z,12.64
2018-01-31T15:04:18.820Z,12.44
2018-01-31T15:06:45.890Z,12.21
2018-01-31T15:09:12.923Z,12.00
2018-01-31T15:11:40.163Z,11.91
2018-01-31T15:14:07.212Z,11.90
2018-01-31T15:16:34.286Z,11.78
2018-01-31T15:19:01.339Z,11.60
2018-01-31T15:21:28.363Z,11.41
2018-01-31T15:23:55.839Z,11.17
2018-01-31T15:26:22.885Z,10.91
2018-01-31T15:28:49.886Z,10.81
2018-01-31T15:31:16.894Z,10.55
2018-01-31T15:33:44.029Z,10.29
2018-01-31T15:36:11.061Z,10.12
2018-01-31T15:38:38.311Z,9.89
2018-01-31T15:41:05.448Z,9.62
2018-01-31T15:43:32.493Z,9.49
2018-01-31T15:45:59.673Z,9.39
2018-01-31T15:48:26.762Z,9.27
2018-01-31T15:50:53.793Z,9.15
2018-01-31T15:53:20.810Z,8.92
2018-01-31T15:55:47.879Z,8.79
2018-01-31T15:58:14.896Z,8.66
2018-01-31T16:00:41.922Z,8.51
2018-01-31T16:03:09.000Z,8.38
2018-01-31T16:05:36.015Z,8.17
2018-01-31T16:08:03.113Z,8.06
2018-01-31T16:10:30.181Z,7.91
2018-01-31T16:12:57.201Z,7.74
2018-01-31T16:15:24.435Z,7.64
2018-01-31T16:17:52.035Z,7.59
2018-01-31T16:20:31.307Z,7.51
2018-01-31T16:22:58.915Z,7.39
2018-01-31T16:25:26.588Z,7.24
2018-01-31T16:28:06.028Z,7.29
2018-01-31T16:30:45.249Z,7.17
2018-01-31T16:33:34.454Z,7.02
2018-01-31T16:36:02.046Z,6.82
2018-01-31T16:38:29.708Z,6.76
2018-01-31T16:40:57.398Z,6.55
2018-01-31T16:43:25.053Z,6.56
2018-01-31T16:45:52.704Z,6.47
2018-01-31T16:48:20.324Z,6.38
2018-01-31T16:50:47.906Z,6.28
2018-01-31T16:53:15.485Z,6.23
2018-01-31T16:55:43.074Z,6.11
2018-01-31T16:58:10.634Z,5.99
2018-01-31T17:00:38.228Z,5.94
2018-01-31T17:03:05.848Z,5.90
2018-01-31T17:05:33.410Z,5.77
2018-01-31T17:08:00.970Z,5.71
2018-01-31T17:10:28.604Z,5.61
2018-01-31T17:12:56.174Z,5.51
2018-01-31T17:15:23.741Z,5.38
2018-01-31T17:17:51.330Z,5.28
2018-01-31T17:20:18.897Z,5.19
2018-01-31T17:22:46.631Z,5.07
2018-01-31T17:25:14.250Z,5.01
2018-01-31T17:27:41.956Z,4.97
2018-01-31T17:30:09.593Z,4.85
2018-01-31T17:32:37.212Z,4.75
2018-01-31T17:35:04.943Z,4.65
2018-01-31T17:37:32.607Z,4.53
2018-01-31T17:40:00.229Z,4.44
2018-01-31T17:42:27.784Z,4.41
2018-01-31T17:44:55.395Z,4.38
2018-01-31T17:47:23.037Z,4.33
2018-01-31T17:49:50.817Z,4.33
2018-01-31T17:52:18.642Z,4.22
2018-01-31T17:54:46.230Z,4.15
2018-01-31T17:57:13.901Z,4.05
2018-01-31T17:59:41.463Z,3.97
2018-01-31T18:02:09.263Z,3.90
2018-01-31T18:04:36.820Z,3.84
2018-01-31T18:07:04.550Z,3.76
2018-01-31T18:09:32.151Z,3.68
2018-01-31T18:11:59.717Z,3.58
2018-01-31T18:14:27.291Z,3.54
2018-01-31T18:16:54.912Z,3.47
2018-01-31T18:19:22.511Z,3.41
2018-01-31T18:21:50.088Z,3.37
2018-01-31T18:24:17.702Z,3.23
2018-01-31T18:26:45.334Z,3.22
2018-01-31T18:29:12.906Z,3.05
2018-01-31T18:31:40.528Z,3.05
2018-01-31T18:34:08.070Z,3.00
2018-01-31T18:36:35.635Z,3.06
2018-01-31T18:39:03.522Z,2.97
2018-01-31T18:41:31.114Z,2.78
2018-01-31T18:43:58.694Z,2.79
2018-01-31T18:46:26.298Z,2.70
2018-01-31T18:48:53.987Z,2.62
2018-01-31T18:51:21.549Z,2.52
2018-01-31T18:53:49.138Z,2.47
2018-01-31T18:56:16.694Z,2.53
2018-01-31T18:58:44.261Z,2.49
2018-01-31T19:01:11.892Z,2.43
2018-01-31T19:03:39.474Z,2.40
2018-01-31T19:06:07.047Z,2.25
2018-01-31T19:08:34.646Z,2.12
2018-01-31T19:11:02.206Z,1.92
2018-01-31T19:13:29.830Z,2.02
2018-01-31T19:15:57.447Z,2.04
2018-01-31T19:18:25.009Z,2.03
2018-01-31T19:20:52.576Z,2.08
2018-01-31T19:23:20.255Z,2.05
2018-01-31T19:25:47.802Z,2.02
2018-01-31T19:28:15.362Z,1.92
2018-01-31T19:30:42.962Z,1.88
2018-01-31T19:33:10.558Z,1.86
2018-01-31T19:35:38.143Z,1.80
2018-01-31T19:38:05.745Z,1.81
2018-01-31T19:40:33.307Z,1.75
2018-01-31T19:43:00.921Z,1.73
2018-01-31T19:45:28.759Z,1.72
2018-01-31T19:47:56.356Z,1.72
2018-01-31T19:50:24.089Z,1.70
2018-01-31T19:52:51.994Z,1.69
2018-01-31T19:55:19.615Z,1.77
2018-01-31T19:57:47.204Z,1.78
2018-01-31T20:00:14.990Z,1.76
2018-01-31T20:02:42.607Z,1.68
2018-01-31T20:05:10.159Z,1.64
2018-01-31T20:07:37.749Z,1.58
2018-01-31T20:10:05.396Z,1.52
2018-01-31T20:12:32.965Z,1.33
2018-01-31T20:15:00.559Z,1.43
2018-01-31T20:17:30.525Z,1.31
2018-01-31T20:19:58.201Z,1.17
2018-01-31T20:22:25.853Z,1.24
2018-01-31T20:24:53.420Z,1.24
2018-01-31T20:27:21.508Z,1.20
2018-01-31T20:29:49.105Z,1.23
2018-01-31T20:32:16.662Z,1.18
2018-01-31T20:34:44.222Z,1.14
2018-01-31T20:37:11.821Z,1.14
2018-01-31T20:39:39.398Z,1.15
2018-01-31T20:42:06.963Z,1.21
2018-01-31T20:44:34.726Z,1.28
2018-01-31T20:47:02.303Z,1.29
2018-01-31T20:49:29.863Z,1.26
2018-01-31T20:51:57.460Z,1.25
2018-01-31T20:54:25.027Z,1.21
2018-01-31T20:56:52.582Z,1.33
2018-01-31T20:59:20.224Z,1.28
2018-01-31T21:01:47.779Z,1.30
2018-01-31T21:04:15.357Z,1.27
2018-01-31T21:06:43.071Z,1.20
2018-01-31T21:09:10.732Z,1.18
2018-01-31T21:11:38.320Z,1.17
2018-01-31T21:14:05.927Z,1.20
2018-01-31T21:16:33.480Z,1.19
2018-01-31T21:19:01.038Z,1.18
2018-01-31T21:21:28.655Z,1.19
2018-01-31T21:23:56.228Z,1.08
2018-01-31T21:26:23.856Z,1.22
2018-01-31T21:28:51.451Z,1.25
2018-01-31T21:31:18.991Z,1.19
2018-01-31T21:33:46.548Z,1.05
2018-01-31T21:36:14.219Z,0.94
2018-01-31T21:38:41.824Z,0.90
2018-01-31T21:41:09.396Z,0.87
2018-01-31T21:43:36.973Z,0.88
2018-01-31T21:46:04.585Z,0.84
2018-01-31T21:48:32.162Z,0.82
2018-01-31T21:50:59.762Z,0.79
2018-01-31T21:53:27.316Z,0.74
2018-01-31T21:55:54.879Z,0.63
2018-01-31T21:58:22.476Z,0.61
2018-01-31T22:00:50.070Z,0.54
2018-01-31T22:03:18.237Z,0.49
2018-01-31T22:05:45.814Z,0.48
2018-01-31T22:08:13.669Z,0.48
2018-01-31T22:10:41.229Z,0.47
2018-01-31T22:13:08.833Z,0.48
2018-01-31T22:15:36.413Z,0.48
2018-01-31T22:18:04.030Z,0.44
2018-01-31T22:20:31.644Z,0.44
2018-01-31T22:22:59.216Z,0.38
2018-01-31T22:25:26.793Z,0.36
2018-01-31T22:27:54.397Z,0.36
2018-01-31T22:30:21.955Z,0.36
2018-01-31T22:32:49.591Z,0.36
2018-01-31T22:35:17.268Z,0.34
2018-01-31T22:37:44.921Z,0.35
2018-01-31T22:40:12.511Z,0.35
2018-01-31T22:42:40.168Z,0.39
2018-01-31T22:45:07.742Z,0.35
2018-01-31T22:47:35.341Z,0.41
2018-01-31T22:50:02.944Z,0.38
2018-01-31T22:52:30.501Z,0.36
2018-01-31T22:54:58.073Z,0.34
2018-01-31T22:57:25.668Z,0.30
2018-01-31T22:59:53.479Z,0.28
2018-01-31T23:02:21.055Z,0.29
2018-01-31T23:04:48.654Z,0.24
2018-01-31T23:07:16.258Z,0.26
2018-01-31T23:09:43.847Z,0.22
2018-01-31T23:12:17.060Z,0.19
2018-01-31T23:14:50.292Z,0.23
2018-01-31T23:17:23.528Z,0.21
2018-01-31T23:19:51.090Z,0.10
2018-01-31T23:22:18.638Z,0.08
2018-01-31T23:24:47.098Z,-0.07
2018-01-31T23:27:14.677Z,-0.06
2018-01-31T23:29:42.250Z,-0.06
2018-01-31T23:32:10.077Z,-0.09
2018-01-31T23:34:37.699Z,-0.05
2018-01-31T23:37:05.270Z,-0.07
2018-01-31T23:39:32.878Z,-0.07
2018-01-31T23:42:00.535Z,-0.05
2018-01-31T23:44:28.186Z,-0.01
2018-01-31T23:46:55.797Z,-0.08
2018-01-31T23:49:23.727Z,-0.07
2018-01-31T23:51:51.386Z,-0.07
2018-01-31T23:54:19.023Z,-0.11
2018-01-31T23:56:46.600Z,-0.04
2018-01-31T23:59:14.169Z,-0.16
